Time;durP1;ratioP1;P1;durP2;ratioP2;P2;SDS_P1;SDS_P2;PMS_P1;PMS_P2;Temp;Humidity;BMP_temperature;BMP_pressure;BME280_temperature;BME280_humidity;BME280_pressure;Samples;Min_cycle;Max_cycle;Signal;HPM_P1;HPM_P2
2024/01/24 00:01:45;;;;;;;3.87;1.67;;;;;;;;;;5021773;28;20245;-78
2024/01/24 00:04:12;;;;;;;2.43;1.40;;;;;;;;;;5021308;28;20234;-80
2024/01/24 00:06:40;;;;;;;2.63;1.30;;;;;;;;;;5026852;28;20871;-83
2024/01/24 00:09:07;;;;;;;3.97;1.37;;;;;;;;;;5025018;28;20671;-77
2024/01/24 00:11:35;;;;;;;3.17;1.40;;;;;;;;;;5022621;28;20663;-80
2024/01/24 00:14:03;;;;;;;1.87;1.00;;;;;;;;;;5028044;28;20588;-83
2024/01/24 00:16:30;;;;;;;3.77;1.47;;;;;;;;;;5028816;28;20213;-83
2024/01/24 00:18:57;;;;;;;1.50;1.23;;;;;;;;;;5024694;28;20202;-80
2024/01/24 00:21:25;;;;;;;4.20;1.60;;;;;;;;;;5042731;28;20237;-75
2024/01/24 00:23:52;;;;;;;2.03;1.30;;;;;;;;;;5029742;28;21295;-79
2024/01/24 00:26:19;;;;;;;3.07;1.40;;;;;;;;;;5009371;28;20693;-81
2024/01/24 00:28:47;;;;;;;3.03;1.73;;;;;;;;;;5026867;28;20221;-80
2024/01/24 00:31:14;;;;;;;2.87;1.40;;;;;;;;;;5002073;28;20235;-78
2024/01/24 00:33:41;;;;;;;4.20;1.40;;;;;;;;;;5002674;28;20238;-82
2024/01/24 00:36:08;;;;;;;2.47;1.50;;;;;;;;;;5015662;28;20775;-80
2024/01/24 00:38:36;;;;;;;3.17;1.40;;;;;;;;;;5020791;28;20224;-82
2024/01/24 00:41:03;;;;;;;1.77;1.20;;;;;;;;;;5024310;28;20206;-80
2024/01/24 00:43:30;;;;;;;2.47;1.70;;;;;;;;;;5023040;28;20873;-80
2024/01/24 00:45:57;;;;;;;4.07;1.97;;;;;;;;;;5006959;28;20283;-78
2024/01/24 00:48:25;;;;;;;3.37;1.33;;;;;;;;;;5001054;28;20231;-80
2024/01/24 00:50:53;;;;;;;2.00;1.30;;;;;;;;;;5023040;28;20207;-82
2024/01/24 00:53:21;;;;;;;2.23;1.33;;;;;;;;;;5030368;28;20325;-78
2024/01/24 00:55:48;;;;;;;3.03;1.30;;;;;;;;;;5030579;28;20211;-81
2024/01/24 00:58:15;;;;;;;2.47;1.20;;;;;;;;;;5027965;28;20260;-81
2024/01/24 01:00:42;;;;;;;1.03;1.03;;;;;;;;;;5014217;28;20207;-81
2024/01/24 01:03:10;;;;;;;3.07;1.40;;;;;;;;;;5019063;28;20352;-76
2024/01/24 01:05:38;;;;;;;2.67;1.67;;;;;;;;;;5027347;28;20621;-80
2024/01/24 01:08:06;;;;;;;3.13;1.40;;;;;;;;;;5026242;28;20211;-81
2024/01/24 01:10:33;;;;;;;2.77;2.00;;;;;;;;;;4996426;28;20666;-80
2024/01/24 01:13:00;;;;;;;2.37;1.30;;;;;;;;;;5000391;28;20258;-80
2024/01/24 01:15:28;;;;;;;1.83;1.40;;;;;;;;;;5027339;28;20211;-80
2024/01/24 01:17:55;;;;;;;4.27;1.23;;;;;;;;;;5021037;28;20241;-83
2024/01/24 01:20:23;;;;;;;4.57;1.30;;;;;;;;;;5026504;28;20285;-78
2024/01/24 01:22:50;;;;;;;3.73;1.20;;;;;;;;;;5023653;28;20278;-82
2024/01/24 01:25:17;;;;;;;3.60;1.53;;;;;;;;;;4997731;28;20669;-79
2024/01/24 01:27:44;;;;;;;3.47;1.33;;;;;;;;;;5019549;28;20209;-79
2024/01/24 01:30:12;;;;;;;4.03;1.53;;;;;;;;;;5005363;28;20205;-79
2024/01/24 01:32:39;;;;;;;2.53;1.33;;;;;;;;;;5020663;28;20210;-80
2024/01/24 01:35:07;;;;;;;1.53;1.10;;;;;;;;;;5006160;28;20227;-80
2024/01/24 01:37:34;;;;;;;2.43;1.27;;;;;;;;;;5007301;28;20261;-80
2024/01/24 01:40:01;;;;;;;2.13;1.60;;;;;;;;;;5022806;28;20738;-78
2024/01/24 01:42:29;;;;;;;3.60;1.30;;;;;;;;;;5023733;28;20195;-80
2024/01/24 01:44:56;;;;;;;1.63;1.27;;;;;;;;;;5023525;28;20208;-80
2024/01/24 01:47:24;;;;;;;2.67;1.43;;;;;;;;;;5021247;28;22039;-80
2024/01/24 01:49:52;;;;;;;5.23;1.30;;;;;;;;;;5020124;28;20207;-80
2024/01/24 01:52:20;;;;;;;5.00;1.40;;;;;;;;;;5023049;28;20627;-81
2024/01/24 01:54:48;;;;;;;3.30;1.83;;;;;;;;;;5022770;28;20697;-80
2024/01/24 01:57:16;;;;;;;3.00;1.30;;;;;;;;;;5005830;28;20199;-79
2024/01/24 01:59:43;;;;;;;1.73;1.20;;;;;;;;;;5018150;28;20207;-80
2024/01/24 02:02:11;;;;;;;3.70;1.30;;;;;;;;;;5004999;28;20205;-79
2024/01/24 02:04:38;;;;;;;5.67;1.17;;;;;;;;;;5006323;28;20237;-81
2024/01/24 02:07:05;;;;;;;3.00;1.40;;;;;;;;;;4997994;28;20207;-81
2024/01/24 02:09:34;;;;;;;3.03;1.37;;;;;;;;;;5023125;28;20214;-80
2024/01/24 02:12:01;;;;;;;1.50;1.23;;;;;;;;;;5023449;28;20298;-78
2024/01/24 02:14:29;;;;;;;2.97;1.40;;;;;;;;;;5020240;28;20697;-81
2024/01/24 02:16:56;;;;;;;2.00;1.47;;;;;;;;;;4999528;28;20273;-81
2024/01/24 02:19:23;;;;;;;2.40;1.30;;;;;;;;;;5021509;28;20211;-81
2024/01/24 02:21:51;;;;;;;1.50;1.30;;;;;;;;;;5010585;28;20214;-77
2024/01/24 02:24:18;;;;;;;3.70;1.30;;;;;;;;;;5019580;28;20262;-80
2024/01/24 02:26:45;;;;;;;4.67;1.40;;;;;;;;;;5009502;28;20311;-80
2024/01/24 02:29:13;;;;;;;2.37;1.53;;;;;;;;;;5027722;28;20673;-79
2024/01/24 02:31:41;;;;;;;2.13;1.43;;;;;;;;;;5023783;28;20717;-79
2024/01/24 02:34:08;;;;;;;2.17;1.47;;;;;;;;;;5001115;28;20261;-79
2024/01/24 02:36:35;;;;;;;5.10;1.40;;;;;;;;;;5026301;28;20203;-79
2024/01/24 02:39:03;;;;;;;3.90;1.70;;;;;;;;;;5027733;28;20257;-79
2024/01/24 02:41:31;;;;;;;5.30;1.37;;;;;;;;;;5008821;28;20207;-77
2024/01/24 02:43:59;;;;;;;3.60;1.50;;;;;;;;;;5003123;28;20233;-79
2024/01/24 02:46:26;;;;;;;2.97;1.43;;;;;;;;;;5026448;28;20532;-79
2024/01/24 02:48:53;;;;;;;1.50;1.40;;;;;;;;;;5023717;28;20700;-76
2024/01/24 02:51:24;;;;;;;2.33;1.40;;;;;;;;;;5024387;28;20693;-78
2024/01/24 02:53:52;;;;;;;2.27;1.40;;;;;;;;;;5022464;28;20218;-79
2024/01/24 02:56:20;;;;;;;2.70;1.80;;;;;;;;;;5031302;28;20206;-80
2024/01/24 02:58:47;;;;;;;3.13;1.40;;;;;;;;;;5007110;28;20207;-79
2024/01/24 03:01:15;;;;;;;3.43;1.67;;;;;;;;;;5023048;28;20272;-80
2024/01/24 03:03:43;;;;;;;1.60;1.13;;;;;;;;;;5006997;28;20655;-80
2024/01/24 03:06:11;;;;;;;3.33;1.60;;;;;;;;;;5025550;28;20210;-78
2024/01/24 03:08:55;;;;;;;1.30;1.20;;;;;;;;;;5006675;28;20216;-80
2024/01/24 03:11:23;;;;;;;2.20;1.40;;;;;;;;;;5025515;28;20247;-82
2024/01/24 03:13:50;;;;;;;5.37;1.90;;;;;;;;;;5023689;28;20238;-83
2024/01/24 03:16:17;;;;;;;2.30;1.30;;;;;;;;;;5025064;28;20673;-80
2024/01/24 03:18:45;;;;;;;3.20;1.40;;;;;;;;;;5024919;28;20199;-81
2024/01/24 03:21:16;;;;;;;4.23;1.30;;;;;;;;;;5004285;28;20203;-80
2024/01/24 03:23:44;;;;;;;2.27;1.30;;;;;;;;;;5005461;28;20272;-80
2024/01/24 03:26:15;;;;;;;3.73;1.27;;;;;;;;;;5004535;28;20301;-80
2024/01/24 03:28:42;;;;;;;3.10;1.57;;;;;;;;;;5019670;28;20210;-80
2024/01/24 03:31:10;;;;;;;4.57;1.50;;;;;;;;;;5021331;28;20441;-80
2024/01/24 03:33:37;;;;;;;2.80;1.10;;;;;;;;;;5003451;28;20237;-83
2024/01/24 03:36:05;;;;;;;4.67;1.50;;;;;;;;;;5036651;28;20198;-80
2024/01/24 03:38:33;;;;;;;2.20;1.37;;;;;;;;;;5028814;28;20211;-79
2024/01/24 03:41:00;;;;;;;2.20;1.50;;;;;;;;;;5051155;28;20205;-75
2024/01/24 03:43:27;;;;;;;1.67;1.20;;;;;;;;;;5047355;28;20203;-78
2024/01/24 03:45:55;;;;;;;1.97;1.33;;;;;;;;;;5049120;28;20201;-77
2024/01/24 03:48:22;;;;;;;1.40;1.30;;;;;;;;;;5052263;28;20233;-80
2024/01/24 03:50:50;;;;;;;3.80;1.30;;;;;;;;;;5054299;28;20206;-80
2024/01/24 03:53:17;;;;;;;2.70;1.70;;;;;;;;;;5047495;28;20223;-80
2024/01/24 03:55:44;;;;;;;2.77;1.40;;;;;;;;;;5040116;28;20253;-80
2024/01/24 03:58:12;;;;;;;2.40;1.50;;;;;;;;;;5028281;28;20230;-82
2024/01/24 04:00:39;;;;;;;2.90;1.47;;;;;;;;;;5011797;28;20210;-80
2024/01/24 04:03:06;;;;;;;2.00;1.40;;;;;;;;;;5026629;28;20218;-80
2024/01/24 04:05:33;;;;;;;4.47;1.40;;;;;;;;;;5022723;28;20207;-77
2024/01/24 04:08:00;;;;;;;3.77;1.37;;;;;;;;;;5023200;28;20281;-81
2024/01/24 04:10:28;;;;;;;2.33;1.40;;;;;;;;;;5022541;28;20211;-80
2024/01/24 04:12:55;;;;;;;1.20;1.10;;;;;;;;;;5025908;28;20228;-81
2024/01/24 04:15:22;;;;;;;4.70;1.47;;;;;;;;;;5024897;28;20256;-82
2024/01/24 04:17:50;;;;;;;1.77;1.20;;;;;;;;;;5022197;28;20398;-80
2024/01/24 04:20:17;;;;;;;1.60;1.20;;;;;;;;;;5002608;28;20271;-75
2024/01/24 04:22:44;;;;;;;2.50;1.63;;;;;;;;;;5020906;28;20258;-80
2024/01/24 04:25:12;;;;;;;7.23;5.63;;;;;;;;;;5001851;28;20199;-80
2024/01/24 04:27:39;;;;;;;2.50;1.33;;;;;;;;;;5032871;28;20210;-79
2024/01/24 04:30:07;;;;;;;4.50;1.80;;;;;;;;;;5047384;28;20274;-82
2024/01/24 04:32:34;;;;;;;2.93;1.10;;;;;;;;;;5034654;28;20275;-83
2024/01/24 04:35:02;;;;;;;3.47;1.50;;;;;;;;;;5041981;28;20222;-83
2024/01/24 04:37:29;;;;;;;2.07;1.40;;;;;;;;;;5040211;28;20218;-77
2024/01/24 04:39:56;;;;;;;1.33;1.23;;;;;;;;;;5001784;28;20206;-80
2024/01/24 04:42:24;;;;;;;2.83;1.23;;;;;;;;;;5028612;28;20557;-80
2024/01/24 04:44:52;;;;;;;1.37;1.13;;;;;;;;;;5001860;28;20213;-79
2024/01/24 04:47:21;;;;;;;2.43;1.40;;;;;;;;;;5027060;28;20210;-80
2024/01/24 04:49:48;;;;;;;1.73;1.53;;;;;;;;;;5030609;28;20207;-80
2024/01/24 04:52:16;;;;;;;3.60;1.13;;;;;;;;;;5025794;28;20214;-82
2024/01/24 04:54:43;;;;;;;1.90;1.20;;;;;;;;;;5027751;28;20458;-79
2024/01/24 04:57:10;;;;;;;1.67;1.10;;;;;;;;;;5010839;28;20204;-78
2024/01/24 04:59:38;;;;;;;2.17;1.20;;;;;;;;;;5027431;28;20269;-81
2024/01/24 05:02:19;;;;;;;1.97;1.60;;;;;;;;;;5025758;28;20202;-82
2024/01/24 05:04:47;;;;;;;4.17;1.90;;;;;;;;;;5026731;28;20214;-81
2024/01/24 05:07:15;;;;;;;5.70;3.63;;;;;;;;;;5010518;28;20309;-81
2024/01/24 05:09:43;;;;;;;9.07;7.03;;;;;;;;;;5011842;28;20290;-79
2024/01/24 05:12:10;;;;;;;1.77;1.40;;;;;;;;;;5010893;28;20211;-80
2024/01/24 05:14:37;;;;;;;3.80;1.60;;;;;;;;;;5029288;28;20313;-82
2024/01/24 05:17:05;;;;;;;1.57;1.43;;;;;;;;;;5026915;28;20272;-80
2024/01/24 05:19:32;;;;;;;1.60;1.50;;;;;;;;;;5012226;28;20203;-78
2024/01/24 05:22:00;;;;;;;2.80;1.70;;;;;;;;;;5002837;28;20233;-79
2024/01/24 05:24:29;;;;;;;1.53;1.20;;;;;;;;;;5024207;28;20225;-80
2024/01/24 05:26:58;;;;;;;1.97;1.30;;;;;;;;;;5006033;28;20238;-82
2024/01/24 05:29:31;;;;;;;3.10;1.57;;;;;;;;;;5024508;28;20210;-81
2024/01/24 05:32:09;;;;;;;2.57;1.47;;;;;;;;;;5018541;28;20210;-79
2024/01/24 05:34:38;;;;;;;1.80;1.33;;;;;;;;;;5023453;28;20300;-82
2024/01/24 05:37:12;;;;;;;2.50;1.10;;;;;;;;;;5022576;28;20294;-81
2024/01/24 05:39:43;;;;;;;2.07;1.23;;;;;;;;;;5021778;28;20381;-83
2024/01/24 05:42:13;;;;;;;1.83;1.17;;;;;;;;;;5023166;28;20203;-80
2024/01/24 05:44:41;;;;;;;2.30;1.17;;;;;;;;;;5019259;28;20218;-80
2024/01/24 05:47:11;;;;;;;4.00;1.30;;;;;;;;;;5024735;28;20564;-81
2024/01/24 05:49:43;;;;;;;1.70;1.13;;;;;;;;;;5017537;28;20207;-80
2024/01/24 05:52:11;;;;;;;1.57;1.30;;;;;;;;;;5026492;28;20665;-79
2024/01/24 05:54:42;;;;;;;3.83;1.63;;;;;;;;;;5027811;28;20308;-82
2024/01/24 05:57:14;;;;;;;1.90;1.30;;;;;;;;;;5002246;28;20293;-82
2024/01/24 05:59:42;;;;;;;1.77;1.47;;;;;;;;;;5022113;28;20233;-82
2024/01/24 06:02:10;;;;;;;2.43;1.67;;;;;;;;;;5023575;28;20468;-81
2024/01/24 06:04:39;;;;;;;2.27;1.67;;;;;;;;;;5010585;28;20226;-84
2024/01/24 06:07:07;;;;;;;3.47;1.50;;;;;;;;;;5006828;28;20215;-85
2024/01/24 06:09:34;;;;;;;1.30;1.20;;;;;;;;;;5024764;28;20315;-83
2024/01/24 06:12:03;;;;;;;1.47;1.37;;;;;;;;;;5001959;28;20581;-81
2024/01/24 06:14:30;;;;;;;2.00;1.50;;;;;;;;;;5026088;28;21669;-84
2024/01/24 06:17:01;;;;;;;3.50;1.27;;;;;;;;;;5009786;28;20222;-77
2024/01/24 06:19:33;;;;;;;1.80;1.30;;;;;;;;;;5020736;28;20210;-82
2024/01/24 06:22:00;;;;;;;1.40;1.30;;;;;;;;;;5025800;28;20221;-80
2024/01/24 06:24:33;;;;;;;3.53;1.30;;;;;;;;;;5018604;28;20230;-85
2024/01/24 06:27:07;;;;;;;2.23;1.60;;;;;;;;;;5029641;28;20687;-86
2024/01/24 06:29:35;;;;;;;2.03;1.20;;;;;;;;;;4999611;28;21024;-83
2024/01/24 06:32:27;;;;;;;3.33;1.53;;;;;;;;;;5021174;28;20336;-79
2024/01/24 06:34:56;;;;;;;1.40;1.30;;;;;;;;;;5024024;28;20238;-84
2024/01/24 06:37:23;;;;;;;2.07;1.47;;;;;;;;;;5025221;28;20209;-79
2024/01/24 06:39:51;;;;;;;2.87;1.60;;;;;;;;;;5024547;28;20210;-79
2024/01/24 06:42:19;;;;;;;1.90;1.10;;;;;;;;;;5026320;28;20231;-83
2024/01/24 06:44:47;;;;;;;1.50;1.40;;;;;;;;;;5027039;28;20720;-82
2024/01/24 06:47:16;;;;;;;1.80;1.17;;;;;;;;;;4995617;28;21347;-80
2024/01/24 06:49:46;;;;;;;2.50;1.10;;;;;;;;;;5019118;28;20289;-81
2024/01/24 06:52:13;;;;;;;2.10;1.50;;;;;;;;;;5026082;28;20474;-83
2024/01/24 06:54:42;;;;;;;1.63;1.40;;;;;;;;;;5029307;28;20227;-87
2024/01/24 06:57:19;;;;;;;3.17;1.50;;;;;;;;;;5010088;28;20284;-86
2024/01/24 06:59:46;;;;;;;1.40;1.30;;;;;;;;;;5004404;28;20330;-82
2024/01/24 07:02:14;;;;;;;1.60;1.50;;;;;;;;;;5009065;28;20235;-81
2024/01/24 07:04:41;;;;;;;1.53;1.37;;;;;;;;;;5020518;28;20285;-83
2024/01/24 07:07:09;;;;;;;2.40;1.30;;;;;;;;;;5027798;28;20219;-84
2024/01/24 07:09:37;;;;;;;1.23;1.10;;;;;;;;;;5001706;28;20622;-86
2024/01/24 07:12:04;;;;;;;2.07;1.40;;;;;;;;;;5018363;28;20256;-82
2024/01/24 07:14:33;;;;;;;1.40;1.30;;;;;;;;;;5012477;28;20230;-83
2024/01/24 07:17:01;;;;;;;2.17;1.40;;;;;;;;;;4999656;28;20199;-82
2024/01/24 07:19:29;;;;;;;1.80;1.30;;;;;;;;;;5019562;28;20210;-82
2024/01/24 07:21:56;;;;;;;1.40;1.30;;;;;;;;;;5025712;28;20222;-78
2024/01/24 07:24:27;;;;;;;1.50;1.40;;;;;;;;;;5006303;28;20279;-78
2024/01/24 07:26:58;;;;;;;1.20;1.10;;;;;;;;;;5021770;28;20211;-84
2024/01/24 07:29:30;;;;;;;1.83;1.20;;;;;;;;;;5027083;28;20203;-82
2024/01/24 07:32:03;;;;;;;1.10;1.00;;;;;;;;;;5029448;28;20202;-84
2024/01/24 07:34:31;;;;;;;2.43;1.20;;;;;;;;;;5024591;28;20234;-84
2024/01/24 07:36:58;;;;;;;1.27;1.20;;;;;;;;;;5008932;28;20278;-85
2024/01/24 07:39:28;;;;;;;1.97;1.73;;;;;;;;;;5026357;28;20593;-86
2024/01/24 07:41:56;;;;;;;1.30;1.20;;;;;;;;;;5022212;28;20203;-80
2024/01/24 07:44:26;;;;;;;1.27;1.13;;;;;;;;;;5019259;28;20697;-85
2024/01/24 07:46:58;;;;;;;1.57;0.93;;;;;;;;;;5024212;28;20203;-78
2024/01/24 07:49:26;;;;;;;1.20;1.10;;;;;;;;;;5026877;28;20202;-84
2024/01/24 07:51:53;;;;;;;1.00;1.00;;;;;;;;;;5005236;28;20231;-84
2024/01/24 07:54:23;;;;;;;1.77;1.10;;;;;;;;;;4997252;28;20361;-80
2024/01/24 07:56:50;;;;;;;1.37;1.13;;;;;;;;;;5018571;28;20306;-82
2024/01/24 07:59:18;;;;;;;1.80;1.70;;;;;;;;;;5022182;28;20677;-87
2024/01/24 08:01:46;;;;;;;1.83;1.63;;;;;;;;;;5018804;28;20233;-81
2024/01/24 08:04:14;;;;;;;1.60;1.50;;;;;;;;;;4994052;28;20496;-80
2024/01/24 08:06:42;;;;;;;2.23;1.50;;;;;;;;;;5019460;28;20563;-81
2024/01/24 08:09:09;;;;;;;1.77;1.30;;;;;;;;;;5022931;28;20301;-80
2024/01/24 08:11:39;;;;;;;1.30;1.13;;;;;;;;;;5026157;28;20577;-80
2024/01/24 08:14:08;;;;;;;1.30;1.30;;;;;;;;;;5025170;28;20828;-84
2024/01/24 08:16:36;;;;;;;1.60;1.50;;;;;;;;;;4998706;28;20739;-80
2024/01/24 08:19:04;;;;;;;3.43;1.47;;;;;;;;;;5004996;28;20266;-81
2024/01/24 08:21:31;;;;;;;2.80;1.80;;;;;;;;;;5024413;28;20211;-84
2024/01/24 08:23:59;;;;;;;2.17;1.40;;;;;;;;;;5022625;28;20342;-80
2024/01/24 08:26:30;;;;;;;1.80;1.33;;;;;;;;;;5020379;28;20206;-82
2024/01/24 08:28:59;;;;;;;2.57;1.10;;;;;;;;;;5027423;28;20666;-82
2024/01/24 08:31:26;;;;;;;1.30;1.20;;;;;;;;;;5026526;28;20210;-81
2024/01/24 08:33:55;;;;;;;1.80;1.20;;;;;;;;;;5025613;28;20230;-79
2024/01/24 08:36:26;;;;;;;1.77;1.10;;;;;;;;;;5023624;28;20775;-82
2024/01/24 08:38:57;;;;;;;1.10;1.10;;;;;;;;;;5025706;28;20219;-83
2024/01/24 08:41:26;;;;;;;1.23;1.00;;;;;;;;;;5007120;28;20203;-85
2024/01/24 08:43:57;;;;;;;1.33;1.20;;;;;;;;;;5026275;28;20318;-80
2024/01/24 08:46:25;;;;;;;2.00;1.20;;;;;;;;;;5023501;28;20206;-84
2024/01/24 08:48:55;;;;;;;1.17;1.07;;;;;;;;;;5003849;28;20225;-83
2024/01/24 08:51:31;;;;;;;2.10;1.10;;;;;;;;;;5021274;28;20294;-86
2024/01/24 08:54:00;;;;;;;1.20;1.10;;;;;;;;;;5020876;28;20723;-79
2024/01/24 08:56:33;;;;;;;1.80;1.13;;;;;;;;;;5022280;28;20947;-83
2024/01/24 08:59:13;;;;;;;1.10;1.03;;;;;;;;;;5024689;28;20265;-85
2024/01/24 09:01:41;;;;;;;1.20;1.10;;;;;;;;;;5028032;28;20257;-82
2024/01/24 09:04:12;;;;;;;1.17;1.13;;;;;;;;;;5017515;28;20223;-83
2024/01/24 09:06:40;;;;;;;1.00;1.00;;;;;;;;;;4997233;28;20207;-84
2024/01/24 09:09:07;;;;;;;1.83;1.10;;;;;;;;;;5024149;28;20207;-82
2024/01/24 09:11:35;;;;;;;1.33;1.00;;;;;;;;;;5010000;28;20298;-83
2024/01/24 09:14:16;;;;;;;1.00;0.90;;;;;;;;;;5029415;28;20228;-86
2024/01/24 09:16:44;;;;;;;1.33;0.90;;;;;;;;;;5021730;28;20284;-79
2024/01/24 09:19:12;;;;;;;1.00;1.00;;;;;;;;;;5042479;28;20229;-79
2024/01/24 09:21:40;;;;;;;1.57;1.30;;;;;;;;;;5041621;28;20199;-77
2024/01/24 09:24:08;;;;;;;1.00;0.70;;;;;;;;;;5045436;28;20234;-82
2024/01/24 09:26:36;;;;;;;0.77;0.77;;;;;;;;;;5009851;28;20226;-84
2024/01/24 09:29:04;;;;;;;0.70;0.70;;;;;;;;;;5029485;28;20630;-81
2024/01/24 09:31:32;;;;;;;1.63;0.70;;;;;;;;;;5007308;28;20209;-81
2024/01/24 09:33:59;;;;;;;0.70;0.70;;;;;;;;;;5029251;28;20227;-81
2024/01/24 09:36:27;;;;;;;0.70;0.70;;;;;;;;;;5026858;28;20276;-85
2024/01/24 09:38:55;;;;;;;0.70;0.70;;;;;;;;;;5033140;28;20614;-85
2024/01/24 09:41:24;;;;;;;0.73;0.73;;;;;;;;;;5015126;28;20298;-80
2024/01/24 09:43:57;;;;;;;0.60;0.60;;;;;;;;;;5031271;28;20221;-80
2024/01/24 09:46:25;;;;;;;0.70;0.70;;;;;;;;;;5031795;28;20198;-78
2024/01/24 09:48:52;;;;;;;0.60;0.60;;;;;;;;;;5022542;28;20211;-84
2024/01/24 09:51:20;;;;;;;0.60;0.60;;;;;;;;;;5032236;28;20239;-82
2024/01/24 09:53:49;;;;;;;0.60;0.60;;;;;;;;;;5023666;28;20732;-83
2024/01/24 09:56:18;;;;;;;0.70;0.70;;;;;;;;;;5009675;28;20262;-83
2024/01/24 09:58:46;;;;;;;0.50;0.50;;;;;;;;;;5031898;28;20226;-83
2024/01/24 10:01:14;;;;;;;0.50;0.50;;;;;;;;;;5037410;28;20242;-82
2024/01/24 10:03:42;;;;;;;0.60;0.60;;;;;;;;;;5015198;28;20225;-85
2024/01/24 10:06:12;;;;;;;0.50;0.50;;;;;;;;;;5033829;28;20206;-82
2024/01/24 10:08:42;;;;;;;0.60;0.60;;;;;;;;;;5016450;23;20242;-64
2024/01/24 10:11:09;;;;;;;0.63;0.63;;;;;;;;;;5002178;28;20579;-64
2024/01/24 10:13:38;;;;;;;0.50;0.50;;;;;;;;;;5014165;28;20312;-64
2024/01/24 10:16:07;;;;;;;0.60;0.60;;;;;;;;;;5023831;28;20231;-64
2024/01/24 10:18:37;;;;;;;0.50;0.50;;;;;;;;;;5017973;28;20698;-63
2024/01/24 10:21:08;;;;;;;0.57;0.50;;;;;;;;;;5023710;28;20692;-64
2024/01/24 10:23:36;;;;;;;1.10;1.10;;;;;;;;;;5020698;28;20233;-63
2024/01/24 10:26:05;;;;;;;0.60;0.60;;;;;;;;;;5022141;28;20210;-63
2024/01/24 10:28:33;;;;;;;0.57;0.50;;;;;;;;;;5021555;28;20230;-64
2024/01/24 10:31:01;;;;;;;0.50;0.50;;;;;;;;;;5023580;28;20215;-63
2024/01/24 10:33:30;;;;;;;0.60;0.60;;;;;;;;;;5020229;28;20227;-63
2024/01/24 10:35:58;;;;;;;0.50;0.50;;;;;;;;;;5021154;28;21202;-63
2024/01/24 10:38:37;;;;;;;0.50;0.50;;;;;;;;;;5016722;28;20206;-64
2024/01/24 10:41:05;;;;;;;0.60;0.60;;;;;;;;;;5021372;28;20294;-62
2024/01/24 10:43:34;;;;;;;0.43;0.43;;;;;;;;;;5004603;28;20231;-64
2024/01/24 10:46:03;;;;;;;0.60;0.60;;;;;;;;;;5019806;28;20667;-63
2024/01/24 10:48:32;;;;;;;0.60;0.60;;;;;;;;;;5022159;28;20211;-64
2024/01/24 10:51:00;;;;;;;0.57;0.57;;;;;;;;;;5008195;28;20213;-64
2024/01/24 10:53:29;;;;;;;0.50;0.50;;;;;;;;;;5004381;28;20700;-65
2024/01/24 10:56:00;;;;;;;0.60;0.60;;;;;;;;;;5010500;28;20240;-64
2024/01/24 10:58:34;;;;;;;0.50;0.50;;;;;;;;;;5019700;28;20453;-63
2024/01/24 11:01:01;;;;;;;0.40;0.40;;;;;;;;;;5022254;28;20218;-64
2024/01/24 11:03:29;;;;;;;0.40;0.40;;;;;;;;;;5017655;28;20220;-64
2024/01/24 11:06:00;;;;;;;0.60;0.60;;;;;;;;;;5021967;28;20206;-63
2024/01/24 11:08:30;;;;;;;0.50;0.50;;;;;;;;;;5019933;28;21272;-63
2024/01/24 11:11:14;;;;;;;0.50;0.50;;;;;;;;;;5024841;28;20202;-63
2024/01/24 11:13:42;;;;;;;0.60;0.60;;;;;;;;;;5028635;28;20284;-65
2024/01/24 11:16:30;;;;;;;1.53;1.33;;;;;;;;;;5021398;28;20243;-63
2024/01/24 11:19:19;;;;;;;0.60;0.60;;;;;;;;;;5023479;28;20819;-63
2024/01/24 11:21:50;;;;;;;1.30;0.67;;;;;;;;;;5027509;28;20202;-64
2024/01/24 11:24:36;;;;;;;0.43;0.43;;;;;;;;;;5021889;28;20222;-63
2024/01/24 11:27:04;;;;;;;0.40;0.40;;;;;;;;;;5044616;28;20214;-65
2024/01/24 11:29:34;;;;;;;0.50;0.50;;;;;;;;;;5017904;28;20241;-64
2024/01/24 11:32:02;;;;;;;0.60;0.60;;;;;;;;;;5024373;28;20211;-63
2024/01/24 11:34:33;;;;;;;0.50;0.50;;;;;;;;;;5021861;28;20288;-63
2024/01/24 11:37:05;;;;;;;0.60;0.60;;;;;;;;;;5027631;28;20364;-63
2024/01/24 11:39:34;;;;;;;0.60;0.60;;;;;;;;;;5021307;28;20260;-64
2024/01/24 11:42:21;;;;;;;0.50;0.50;;;;;;;;;;5017036;28;20199;-63
2024/01/24 11:44:48;;;;;;;0.40;0.40;;;;;;;;;;5019124;28;20211;-64
2024/01/24 11:47:16;;;;;;;0.50;0.50;;;;;;;;;;5014966;28;20208;-63
2024/01/24 11:49:53;;;;;;;0.60;0.60;;;;;;;;;;5020586;28;20298;-64
2024/01/24 11:52:21;;;;;;;0.40;0.40;;;;;;;;;;5017131;28;20207;-64
2024/01/24 11:54:54;;;;;;;0.57;0.57;;;;;;;;;;5025137;28;20226;-64
2024/01/24 11:57:22;;;;;;;0.50;0.50;;;;;;;;;;5021848;28;20240;-65
2024/01/24 11:59:50;;;;;;;0.50;0.50;;;;;;;;;;5024514;28;20203;-64
2024/01/24 12:02:17;;;;;;;0.60;0.60;;;;;;;;;;5006230;28;20227;-65
2024/01/24 12:04:44;;;;;;;0.50;0.50;;;;;;;;;;5020097;28;20199;-65
2024/01/24 12:07:12;;;;;;;0.40;0.40;;;;;;;;;;5019765;28;20214;-64
2024/01/24 12:09:40;;;;;;;0.50;0.50;;;;;;;;;;5021907;28;20306;-64
2024/01/24 12:12:09;;;;;;;0.50;0.50;;;;;;;;;;5028132;28;20222;-65
2024/01/24 12:14:37;;;;;;;0.50;0.50;;;;;;;;;;5007343;28;20226;-65
2024/01/24 12:17:05;;;;;;;0.50;0.50;;;;;;;;;;5018154;28;20316;-64
2024/01/24 12:19:33;;;;;;;0.50;0.50;;;;;;;;;;5025063;28;20210;-65
2024/01/24 12:22:00;;;;;;;0.50;0.50;;;;;;;;;;5019832;28;20281;-65
2024/01/24 12:24:28;;;;;;;0.77;0.70;;;;;;;;;;5023991;28;20815;-64
2024/01/24 12:26:56;;;;;;;0.50;0.50;;;;;;;;;;5024610;28;20220;-65
2024/01/24 12:29:27;;;;;;;0.53;0.53;;;;;;;;;;5021368;28;20266;-64
2024/01/24 12:32:03;;;;;;;0.50;0.50;;;;;;;;;;5024351;28;20215;-64
2024/01/24 12:34:38;;;;;;;0.50;0.50;;;;;;;;;;5015651;28;20333;-64
2024/01/24 12:37:06;;;;;;;0.40;0.40;;;;;;;;;;5020388;28;20700;-65
2024/01/24 12:39:34;;;;;;;1.57;0.60;;;;;;;;;;5020501;28;20243;-65
2024/01/24 12:42:03;;;;;;;0.63;0.60;;;;;;;;;;5025407;28;20203;-65
2024/01/24 12:44:30;;;;;;;0.68;0.68;;;;;;;;;;5021285;28;20230;-64
2024/01/24 12:47:00;;;;;;;0.50;0.50;;;;;;;;;;5025342;28;20215;-65
2024/01/24 12:49:28;;;;;;;0.52;0.50;;;;;;;;;;5028695;28;20687;-62
2024/01/24 12:51:57;;;;;;;0.70;0.70;;;;;;;;;;5025017;28;20581;-64
2024/01/24 12:54:27;;;;;;;0.50;0.50;;;;;;;;;;5026853;28;20225;-64
2024/01/24 12:56:59;;;;;;;0.50;0.50;;;;;;;;;;5025865;28;20226;-64
2024/01/24 12:59:27;;;;;;;1.30;0.55;;;;;;;;;;5020358;28;20640;-63
2024/01/24 13:01:56;;;;;;;2.10;0.65;;;;;;;;;;5012045;28;20680;-63
2024/01/24 13:04:31;;;;;;;0.60;0.60;;;;;;;;;;5019303;28;20257;-64
2024/01/24 13:07:15;;;;;;;0.57;0.57;;;;;;;;;;5019417;28;20294;-63
2024/01/24 13:09:51;;;;;;;0.60;0.60;;;;;;;;;;5022720;28;20238;-65
2024/01/24 13:12:23;;;;;;;0.90;0.90;;;;;;;;;;5022105;28;20215;-66
2024/01/24 13:14:53;;;;;;;0.50;0.50;;;;;;;;;;4993050;28;20207;-64
2024/01/24 13:17:26;;;;;;;0.60;0.60;;;;;;;;;;5027002;28;20226;-65
2024/01/24 13:19:54;;;;;;;0.50;0.50;;;;;;;;;;5021961;28;20211;-64
2024/01/24 13:22:22;;;;;;;0.60;0.60;;;;;;;;;;5023878;28;20564;-64
2024/01/24 13:24:49;;;;;;;1.27;0.50;;;;;;;;;;5025940;28;20238;-64
2024/01/24 13:27:22;;;;;;;1.70;1.60;;;;;;;;;;5024021;28;20215;-64
2024/01/24 13:29:55;;;;;;;0.65;0.65;;;;;;;;;;5017406;28;20214;-64
2024/01/24 13:32:22;;;;;;;0.50;0.50;;;;;;;;;;5024317;28;20234;-62
2024/01/24 13:34:50;;;;;;;0.52;0.52;;;;;;;;;;5025636;28;20207;-64
2024/01/24 13:37:37;;;;;;;0.63;0.60;;;;;;;;;;5023833;28;21232;-63
2024/01/24 13:40:08;;;;;;;0.60;0.60;;;;;;;;;;5022654;28;20207;-63
2024/01/24 13:42:36;;;;;;;0.50;0.50;;;;;;;;;;5022321;28;20219;-62
2024/01/24 13:45:06;;;;;;;0.60;0.60;;;;;;;;;;5018222;28;20210;-64
2024/01/24 13:47:40;;;;;;;0.60;0.60;;;;;;;;;;5021534;28;20211;-63
2024/01/24 13:50:09;;;;;;;0.70;0.70;;;;;;;;;;5025730;28;20252;-64
2024/01/24 13:52:38;;;;;;;0.50;0.50;;;;;;;;;;5021140;28;20226;-63
2024/01/24 13:55:07;;;;;;;0.50;0.50;;;;;;;;;;5018298;28;20311;-63
2024/01/24 13:57:35;;;;;;;0.67;0.50;;;;;;;;;;5023399;28;20305;-63
2024/01/24 14:00:11;;;;;;;0.50;0.50;;;;;;;;;;5027234;28;20203;-63
2024/01/24 14:02:38;;;;;;;0.57;0.57;;;;;;;;;;5024512;28;20218;-63
2024/01/24 14:05:06;;;;;;;0.50;0.50;;;;;;;;;;5021850;28;20287;-63
2024/01/24 14:07:34;;;;;;;0.60;0.60;;;;;;;;;;5021646;28;20348;-63
2024/01/24 14:10:06;;;;;;;0.60;0.60;;;;;;;;;;5022713;28;20199;-63
2024/01/24 14:12:41;;;;;;;0.50;0.50;;;;;;;;;;5013824;28;20223;-63
2024/01/24 14:15:10;;;;;;;0.50;0.50;;;;;;;;;;5020398;28;20668;-63
2024/01/24 14:17:54;;;;;;;1.10;0.57;;;;;;;;;;5032973;28;20210;-63
2024/01/24 14:20:22;;;;;;;0.60;0.60;;;;;;;;;;5048691;28;20266;-63
2024/01/24 14:22:49;;;;;;;0.50;0.50;;;;;;;;;;5025857;28;20253;-65
2024/01/24 14:25:17;;;;;;;0.50;0.50;;;;;;;;;;5023317;28;20235;-63
2024/01/24 14:27:44;;;;;;;0.70;0.70;;;;;;;;;;5021426;28;20215;-64
2024/01/24 14:30:12;;;;;;;0.67;0.67;;;;;;;;;;5022354;28;20607;-62
2024/01/24 14:32:40;;;;;;;0.50;0.50;;;;;;;;;;5025277;28;20226;-64
2024/01/24 14:35:09;;;;;;;1.47;1.37;;;;;;;;;;5022813;28;20199;-63
2024/01/24 14:37:40;;;;;;;4.03;1.20;;;;;;;;;;5019949;28;20223;-62
2024/01/24 14:40:09;;;;;;;4.80;2.47;;;;;;;;;;5026874;28;20293;-64
2024/01/24 14:42:36;;;;;;;10.83;5.93;;;;;;;;;;5022755;28;20276;-64
2024/01/24 14:45:05;;;;;;;12.97;6.97;;;;;;;;;;5022799;28;20318;-64
2024/01/24 14:47:33;;;;;;;2.20;2.10;;;;;;;;;;5010069;28;20221;-64
2024/01/24 14:50:00;;;;;;;1.67;0.80;;;;;;;;;;5016031;28;20865;-65
2024/01/24 14:52:28;;;;;;;2.37;1.77;;;;;;;;;;5023778;28;20207;-65
2024/01/24 14:54:56;;;;;;;2.33;1.43;;;;;;;;;;5025030;28;20203;-63